Time;durP1;ratioP1;P1;durP2;ratioP2;P2;SDS_P1;SDS_P2;PMS_P1;PMS_P2;Temp;Humidity;BMP_temperature;BMP_pressure;BME280_temperature;BME280_humidity;BME280_pressure;Samples;Min_cycle;Max_cycle;Signal;HPM_P1;HPM_P2
2023/10/26 05:00:30;;;;;;;9.10;3.20;;;;;;;;;;5931684;23;20434;-69
2023/10/26 05:02:56;;;;;;;7.83;3.20;;;;;;;;;;4974215;28;20455;-70
2023/10/26 05:05:22;;;;;;;5.47;2.83;;;;;;;;;;4974565;28;20404;-72
2023/10/26 05:07:48;;;;;;;10.13;3.37;;;;;;;;;;4974537;28;20480;-70
2023/10/26 05:10:14;;;;;;;5.63;2.57;;;;;;;;;;4973927;28;20947;-73
2023/10/26 05:12:40;;;;;;;9.80;3.53;;;;;;;;;;4973774;28;20637;-73
2023/10/26 05:15:06;;;;;;;3.37;2.73;;;;;;;;;;4973849;28;20412;-69
2023/10/26 05:17:32;;;;;;;18.03;3.50;;;;;;;;;;4973308;28;20403;-69
2023/10/26 05:19:58;;;;;;;11.40;3.70;;;;;;;;;;4955826;28;20411;-68
2023/10/26 05:22:24;;;;;;;9.10;2.83;;;;;;;;;;4973056;28;21073;-69
2023/10/26 05:24:50;;;;;;;7.40;3.50;;;;;;;;;;4973311;28;20420;-69
2023/10/26 05:27:16;;;;;;;9.30;3.83;;;;;;;;;;4973739;28;20891;-70
2023/10/26 05:29:43;;;;;;;8.47;4.00;;;;;;;;;;4972989;28;20770;-70
2023/10/26 05:32:09;;;;;;;10.77;3.73;;;;;;;;;;4972820;28;20500;-69
2023/10/26 05:34:35;;;;;;;10.60;3.63;;;;;;;;;;4972951;28;20415;-68
2023/10/26 05:37:01;;;;;;;8.73;3.10;;;;;;;;;;4972555;28;20927;-70
2023/10/26 05:39:27;;;;;;;6.80;3.67;;;;;;;;;;4972970;28;20415;-71
2023/10/26 05:41:53;;;;;;;7.67;3.63;;;;;;;;;;4972913;28;20467;-70
2023/10/26 05:44:19;;;;;;;7.30;3.30;;;;;;;;;;4973156;28;20408;-73
2023/10/26 05:46:45;;;;;;;7.70;3.20;;;;;;;;;;4971365;28;20439;-70
2023/10/26 05:49:11;;;;;;;6.72;3.67;;;;;;;;;;4964872;28;20446;-71
2023/10/26 05:51:37;;;;;;;11.73;3.77;;;;;;;;;;4947783;29;20566;-70
2023/10/26 05:54:03;;;;;;;8.67;3.30;;;;;;;;;;4952615;29;20417;-72
2023/10/26 05:56:29;;;;;;;6.87;3.40;;;;;;;;;;4957470;28;20455;-73
2023/10/26 05:58:55;;;;;;;5.90;2.77;;;;;;;;;;4971889;28;20776;-72
2023/10/26 06:01:21;;;;;;;4.77;3.03;;;;;;;;;;4972648;28;20518;-72
2023/10/26 06:03:47;;;;;;;6.97;3.40;;;;;;;;;;4955585;28;20515;-72
2023/10/26 06:06:13;;;;;;;12.80;3.20;;;;;;;;;;4972859;28;20914;-72
2023/10/26 06:08:39;;;;;;;4.60;2.87;;;;;;;;;;4972289;28;20488;-72
2023/10/26 06:11:05;;;;;;;6.23;3.60;;;;;;;;;;4972533;28;20467;-72
2023/10/26 06:13:31;;;;;;;8.20;3.63;;;;;;;;;;4973317;28;20416;-72
2023/10/26 06:15:57;;;;;;;3.63;2.40;;;;;;;;;;4968947;28;20498;-73
2023/10/26 06:18:23;;;;;;;6.80;2.90;;;;;;;;;;4972678;28;20420;-72
2023/10/26 06:21:02;;;;;;;4.47;2.43;;;;;;;;;;4971853;28;20922;-71
2023/10/26 06:23:28;;;;;;;5.27;2.17;;;;;;;;;;4972695;28;20785;-70
2023/10/26 06:25:58;;;;;;;6.10;2.80;;;;;;;;;;4972770;28;20503;-70
2023/10/26 06:28:24;;;;;;;7.43;2.93;;;;;;;;;;4972606;28;20412;-73
2023/10/26 06:30:50;;;;;;;3.13;2.30;;;;;;;;;;4972460;28;20434;-72
2023/10/26 06:33:16;;;;;;;2.90;2.23;;;;;;;;;;4969842;28;20427;-72
2023/10/26 06:35:42;;;;;;;3.83;2.87;;;;;;;;;;4971585;28;20428;-72
2023/10/26 06:38:07;;;;;;;7.13;2.70;;;;;;;;;;4972808;28;20506;-72
2023/10/26 06:40:33;;;;;;;8.83;3.53;;;;;;;;;;4959421;28;21221;-74
2023/10/26 06:43:00;;;;;;;6.60;2.70;;;;;;;;;;4971750;28;20463;-72
2023/10/26 06:45:26;;;;;;;4.13;2.30;;;;;;;;;;4970896;28;20937;-72
2023/10/26 06:47:52;;;;;;;11.20;2.80;;;;;;;;;;4971271;28;20439;-73
2023/10/26 06:50:18;;;;;;;5.40;2.57;;;;;;;;;;4972237;28;20499;-72
2023/10/26 06:52:44;;;;;;;5.03;2.63;;;;;;;;;;4972102;28;20478;-72
2023/10/26 06:55:17;;;;;;;5.60;2.43;;;;;;;;;;4959941;28;20430;-71
2023/10/26 06:57:43;;;;;;;7.33;3.70;;;;;;;;;;4958039;28;20432;-71
2023/10/26 07:00:10;;;;;;;7.00;3.03;;;;;;;;;;4970852;28;20424;-72
2023/10/26 07:02:36;;;;;;;5.17;3.10;;;;;;;;;;4961265;28;20553;-71
2023/10/26 07:05:05;;;;;;;6.30;2.73;;;;;;;;;;4970571;28;20435;-71
2023/10/26 07:07:35;;;;;;;8.27;3.00;;;;;;;;;;4967604;28;20427;-71
2023/10/26 07:10:01;;;;;;;7.67;2.70;;;;;;;;;;4971444;28;20426;-72
2023/10/26 07:12:27;;;;;;;6.10;2.43;;;;;;;;;;4956660;28;20531;-71
2023/10/26 07:14:56;;;;;;;8.87;3.23;;;;;;;;;;4971984;28;20428;-72
2023/10/26 07:17:23;;;;;;;10.27;2.50;;;;;;;;;;4971866;28;20945;-71
2023/10/26 07:19:49;;;;;;;7.30;2.97;;;;;;;;;;4971910;28;20935;-71
2023/10/26 07:22:15;;;;;;;6.20;2.40;;;;;;;;;;4956058;28;20479;-72
2023/10/26 07:24:41;;;;;;;4.10;2.50;;;;;;;;;;4966787;28;20424;-72
2023/10/26 07:27:07;;;;;;;4.43;2.60;;;;;;;;;;4974681;28;20416;-72
2023/10/26 07:29:33;;;;;;;9.50;3.00;;;;;;;;;;4957189;28;20432;-71
2023/10/26 07:31:59;;;;;;;6.83;3.13;;;;;;;;;;4964417;28;20476;-71
2023/10/26 07:34:25;;;;;;;16.40;4.00;;;;;;;;;;4975052;28;20799;-72
2023/10/26 07:36:51;;;;;;;6.40;3.83;;;;;;;;;;4965679;28;20425;-71
2023/10/26 07:39:17;;;;;;;10.53;3.30;;;;;;;;;;4973443;28;20459;-72
2023/10/26 07:41:43;;;;;;;8.90;3.17;;;;;;;;;;4966505;28;20527;-71
2023/10/26 07:44:09;;;;;;;6.23;3.20;;;;;;;;;;4965485;28;20434;-72
2023/10/26 07:46:35;;;;;;;7.00;3.10;;;;;;;;;;4974867;28;20511;-72
2023/10/26 07:49:02;;;;;;;4.80;3.07;;;;;;;;;;4967753;28;20460;-71
2023/10/26 07:51:28;;;;;;;7.03;3.47;;;;;;;;;;4966476;28;20451;-72
2023/10/26 07:53:54;;;;;;;5.33;2.53;;;;;;;;;;4957637;28;20587;-71
2023/10/26 07:56:20;;;;;;;8.10;2.57;;;;;;;;;;4972497;28;20435;-72
2023/10/26 07:58:46;;;;;;;7.90;2.70;;;;;;;;;;4975246;28;20797;-72
2023/10/26 08:01:12;;;;;;;8.93;4.20;;;;;;;;;;4973753;28;20475;-72
2023/10/26 08:03:38;;;;;;;7.53;3.40;;;;;;;;;;4973683;28;20840;-72
2023/10/26 08:06:06;;;;;;;6.43;4.10;;;;;;;;;;4973840;28;20459;-72
2023/10/26 08:08:33;;;;;;;9.83;4.40;;;;;;;;;;4966207;28;20431;-72
2023/10/26 08:11:08;;;;;;;17.70;4.33;;;;;;;;;;4974663;28;20436;-73
2023/10/26 08:13:34;;;;;;;5.63;4.10;;;;;;;;;;4974870;28;20415;-73
2023/10/26 08:16:01;;;;;;;6.07;3.70;;;;;;;;;;4966258;28;20527;-73
2023/10/26 08:18:27;;;;;;;14.90;4.20;;;;;;;;;;4975303;28;20423;-72
2023/10/26 08:20:53;;;;;;;9.70;4.00;;;;;;;;;;4965307;28;20464;-72
2023/10/26 08:23:20;;;;;;;5.10;4.10;;;;;;;;;;4955387;28;20425;-72
2023/10/26 08:25:47;;;;;;;5.30;3.60;;;;;;;;;;4961434;28;20431;-71
2023/10/26 08:28:13;;;;;;;7.50;3.97;;;;;;;;;;4973904;28;20428;-71
2023/10/26 08:30:39;;;;;;;6.43;4.27;;;;;;;;;;4973273;28;20809;-72
2023/10/26 08:33:05;;;;;;;15.90;5.20;;;;;;;;;;4966577;28;20480;-72
2023/10/26 08:35:31;;;;;;;6.90;4.97;;;;;;;;;;4974254;28;20431;-71
2023/10/26 08:37:57;;;;;;;12.73;4.67;;;;;;;;;;4973404;28;20420;-73
2023/10/26 08:40:24;;;;;;;8.63;3.90;;;;;;;;;;4973865;28;20512;-73
2023/10/26 08:42:50;;;;;;;10.67;4.40;;;;;;;;;;4962697;28;20464;-72
2023/10/26 08:45:23;;;;;;;11.30;3.50;;;;;;;;;;4974227;28;20463;-74
2023/10/26 08:47:50;;;;;;;9.60;4.00;;;;;;;;;;4963671;28;20427;-72
2023/10/26 08:50:17;;;;;;;7.90;4.57;;;;;;;;;;4974040;28;20437;-72
2023/10/26 08:52:43;;;;;;;8.80;4.03;;;;;;;;;;4973720;28;20459;-71
2023/10/26 08:55:09;;;;;;;10.40;3.97;;;;;;;;;;4973701;28;20431;-71
2023/10/26 08:57:46;;;;;;;23.40;3.90;;;;;;;;;;4963070;28;20479;-72
2023/10/26 09:00:12;;;;;;;7.70;4.17;;;;;;;;;;4954670;28;20525;-72
2023/10/26 09:02:38;;;;;;;10.40;4.23;;;;;;;;;;4958681;28;20468;-72
2023/10/26 09:05:04;;;;;;;7.23;3.97;;;;;;;;;;4959980;28;20428;-72
2023/10/26 09:07:31;;;;;;;14.97;4.10;;;;;;;;;;4959790;28;20429;-72
2023/10/26 09:09:57;;;;;;;10.90;3.90;;;;;;;;;;4961062;28;20415;-71
2023/10/26 09:12:23;;;;;;;7.07;3.37;;;;;;;;;;4957324;28;20452;-72
2023/10/26 09:14:59;;;;;;;7.83;4.30;;;;;;;;;;4961386;28;20448;-73
2023/10/26 09:17:26;;;;;;;10.83;4.50;;;;;;;;;;4954224;28;20446;-72
2023/10/26 09:19:52;;;;;;;7.73;4.00;;;;;;;;;;4953794;28;20417;-71
2023/10/26 09:22:18;;;;;;;11.33;4.90;;;;;;;;;;4963630;28;20479;-72
2023/10/26 09:24:44;;;;;;;8.37;3.90;;;;;;;;;;4958603;28;20432;-72
2023/10/26 09:27:20;;;;;;;9.60;4.30;;;;;;;;;;4953932;28;20420;-72
2023/10/26 09:29:47;;;;;;;8.60;5.00;;;;;;;;;;4953710;28;20417;-73
2023/10/26 09:32:13;;;;;;;10.40;4.10;;;;;;;;;;4958646;28;20527;-72
2023/10/26 09:34:40;;;;;;;11.43;4.20;;;;;;;;;;4963993;28;20464;-72
2023/10/26 09:37:07;;;;;;;6.20;4.23;;;;;;;;;;4961508;28;20426;-74
2023/10/26 09:39:35;;;;;;;8.80;4.80;;;;;;;;;;4963183;28;20491;-71
2023/10/26 09:42:01;;;;;;;9.33;4.10;;;;;;;;;;4957095;28;20484;-74
2023/10/26 09:44:31;;;;;;;12.50;4.67;;;;;;;;;;4965472;28;20425;-75
2023/10/26 09:46:57;;;;;;;13.03;4.30;;;;;;;;;;4948390;28;20495;-74
2023/10/26 09:49:24;;;;;;;15.83;4.83;;;;;;;;;;4962584;28;20420;-74
2023/10/26 09:51:50;;;;;;;4.60;3.77;;;;;;;;;;4971339;28;20819;-71
2023/10/26 09:54:18;;;;;;;8.07;4.30;;;;;;;;;;4971085;28;20482;-72
2023/10/26 09:56:47;;;;;;;10.53;4.43;;;;;;;;;;4972079;28;20954;-72
2023/10/26 09:59:13;;;;;;;9.60;4.53;;;;;;;;;;4972880;28;20423;-72
2023/10/26 10:01:42;;;;;;;4.93;3.67;;;;;;;;;;4972832;28;20475;-71
2023/10/26 10:04:09;;;;;;;7.80;4.40;;;;;;;;;;4973008;28;20682;-70
2023/10/26 10:06:51;;;;;;;8.97;4.33;;;;;;;;;;4972974;28;20416;-70
2023/10/26 10:09:26;;;;;;;6.63;4.30;;;;;;;;;;4972818;28;20412;-70
2023/10/26 10:12:08;;;;;;;6.30;4.60;;;;;;;;;;4972797;28;20461;-70
2023/10/26 10:14:51;;;;;;;8.80;5.20;;;;;;;;;;4972941;28;20834;-70
2023/10/26 10:17:20;;;;;;;12.73;5.33;;;;;;;;;;4972937;28;20416;-71
2023/10/26 10:19:47;;;;;;;9.77;5.50;;;;;;;;;;4972620;28;20892;-71
2023/10/26 10:22:31;;;;;;;7.23;4.73;;;;;;;;;;4972476;28;20455;-70
2023/10/26 10:24:57;;;;;;;8.23;5.50;;;;;;;;;;4972755;28;20423;-70
2023/10/26 10:27:23;;;;;;;9.67;5.37;;;;;;;;;;4972737;28;20903;-70
2023/10/26 10:29:49;;;;;;;12.00;5.30;;;;;;;;;;4972538;28;20955;-71
2023/10/26 10:32:34;;;;;;;15.37;5.20;;;;;;;;;;4972676;28;20432;-70
2023/10/26 10:35:02;;;;;;;4.30;3.43;;;;;;;;;;4972597;28;20478;-70
2023/10/26 10:37:28;;;;;;;7.83;3.90;;;;;;;;;;4972956;28;20502;-70
2023/10/26 10:40:11;;;;;;;5.27;3.50;;;;;;;;;;4972444;28;20419;-71
2023/10/26 10:42:39;;;;;;;6.80;3.90;;;;;;;;;;4972487;28;20454;-71
2023/10/26 10:45:05;;;;;;;7.40;4.13;;;;;;;;;;4972557;28;20412;-70
2023/10/26 10:47:31;;;;;;;8.20;5.03;;;;;;;;;;4972806;28;20404;-70
2023/10/26 10:50:16;;;;;;;8.23;4.13;;;;;;;;;;4972537;28;20914;-71
2023/10/26 10:52:42;;;;;;;7.37;3.50;;;;;;;;;;4972548;28;20427;-71
2023/10/26 10:55:09;;;;;;;9.20;4.47;;;;;;;;;;4975786;28;20498;-70
2023/10/26 10:57:35;;;;;;;5.67;4.10;;;;;;;;;;4976226;28;20408;-71
2023/10/26 11:00:01;;;;;;;6.80;3.00;;;;;;;;;;4975861;28;20411;-71
2023/10/26 11:02:27;;;;;;;3.37;2.83;;;;;;;;;;4975813;28;20482;-71
2023/10/26 11:04:53;;;;;;;4.63;2.27;;;;;;;;;;4977558;28;20407;-70
2023/10/26 11:07:24;;;;;;;3.67;2.67;;;;;;;;;;4977745;28;20412;-71
2023/10/26 11:09:50;;;;;;;3.60;2.60;;;;;;;;;;4976562;28;20487;-70
2023/10/26 11:12:16;;;;;;;3.03;2.67;;;;;;;;;;4976219;28;20463;-70
2023/10/26 11:14:52;;;;;;;2.47;2.27;;;;;;;;;;4976539;28;20419;-71
2023/10/26 11:17:22;;;;;;;4.60;2.50;;;;;;;;;;5032986;23;20508;-72
2023/10/26 11:19:49;;;;;;;8.20;2.73;;;;;;;;;;5015283;28;21022;-71
2023/10/26 11:22:15;;;;;;;7.00;2.80;;;;;;;;;;5015241;28;20516;-72
2023/10/26 11:24:42;;;;;;;6.57;3.60;;;;;;;;;;5015149;28;20414;-71
2023/10/26 11:27:08;;;;;;;4.13;2.80;;;;;;;;;;4980624;28;20474;-71
2023/10/26 11:29:34;;;;;;;3.87;2.37;;;;;;;;;;4995326;28;20454;-71
2023/10/26 11:32:00;;;;;;;2.77;2.53;;;;;;;;;;4995677;28;20415;-71
2023/10/26 11:34:27;;;;;;;5.90;3.00;;;;;;;;;;4977810;28;20461;-72
2023/10/26 11:36:54;;;;;;;3.83;3.33;;;;;;;;;;4995821;28;20438;-71
2023/10/26 11:39:20;;;;;;;4.13;2.60;;;;;;;;;;4995331;28;20467;-72
2023/10/26 11:41:54;;;;;;;5.10;2.40;;;;;;;;;;4995002;28;20458;-71
2023/10/26 11:44:24;;;;;;;4.13;2.93;;;;;;;;;;4995141;28;20410;-72
2023/10/26 11:46:56;;;;;;;4.50;3.23;;;;;;;;;;4995107;28;20782;-72
2023/10/26 11:49:36;;;;;;;3.10;2.03;;;;;;;;;;4977745;28;20431;-72
2023/10/26 11:52:02;;;;;;;3.37;2.63;;;;;;;;;;4985728;28;20470;-72
2023/10/26 11:54:28;;;;;;;8.03;2.50;;;;;;;;;;4987243;28;20438;-72
2023/10/26 11:56:54;;;;;;;4.97;2.50;;;;;;;;;;5013982;28;20535;-72
2023/10/26 11:59:20;;;;;;;10.50;4.90;;;;;;;;;;5014552;28;20454;-71
2023/10/26 12:01:46;;;;;;;4.10;2.67;;;;;;;;;;4995783;28;20637;-71
2023/10/26 12:04:12;;;;;;;6.33;3.17;;;;;;;;;;5013752;28;20552;-71
2023/10/26 12:06:38;;;;;;;6.47;3.20;;;;;;;;;;5012710;28;20426;-72
2023/10/26 12:09:06;;;;;;;4.30;2.23;;;;;;;;;;5013961;28;20417;-70
2023/10/26 12:11:32;;;;;;;6.23;3.10;;;;;;;;;;5013611;28;20846;-70
2023/10/26 12:13:57;;;;;;;3.60;2.30;;;;;;;;;;5014393;28;20441;-71
2023/10/26 12:16:23;;;;;;;2.73;2.10;;;;;;;;;;4996456;28;20552;-71
2023/10/26 12:18:49;;;;;;;9.50;2.90;;;;;;;;;;5014048;28;20418;-71
2023/10/26 12:21:16;;;;;;;2.63;1.97;;;;;;;;;;5013811;28;21035;-71
2023/10/26 12:23:42;;;;;;;3.67;1.40;;;;;;;;;;5013981;28;20418;-71
2023/10/26 12:26:08;;;;;;;1.63;1.50;;;;;;;;;;5013914;28;21003;-71
2023/10/26 12:28:34;;;;;;;2.53;1.90;;;;;;;;;;4996294;28;20434;-72
2023/10/26 12:31:00;;;;;;;2.70;1.93;;;;;;;;;;5013655;28;20406;-71
2023/10/26 12:33:27;;;;;;;4.43;2.10;;;;;;;;;;5013694;28;20414;-72
2023/10/26 12:35:53;;;;;;;6.00;2.50;;;;;;;;;;5013530;28;20483;-72
2023/10/26 12:38:21;;;;;;;4.07;2.53;;;;;;;;;;5013999;28;20406;-71
2023/10/26 12:40:48;;;;;;;3.47;2.37;;;;;;;;;;5013348;28;20417;-71
2023/10/26 12:43:14;;;;;;;4.20;2.23;;;;;;;;;;5013745;28;20465;-72
2023/10/26 12:45:40;;;;;;;2.80;2.40;;;;;;;;;;5013317;28;20438;-72
2023/10/26 12:48:06;;;;;;;4.53;2.47;;;;;;;;;;5013254;28;20429;-72
2023/10/26 12:50:32;;;;;;;4.90;2.57;;;;;;;;;;5013299;28;20520;-72
2023/10/26 12:52:58;;;;;;;4.67;2.30;;;;;;;;;;5013566;28;20420;-73
2023/10/26 12:55:24;;;;;;;6.83;2.90;;;;;;;;;;4995695;28;20449;-72
2023/10/26 12:57:51;;;;;;;5.50;2.47;;;;;;;;;;5013486;28;20419;-72
2023/10/26 13:00:17;;;;;;;5.80;3.40;;;;;;;;;;5013295;28;20869;-72
2023/10/26 13:02:43;;;;;;;5.37;2.90;;;;;;;;;;5013008;28;20556;-72
2023/10/26 13:05:09;;;;;;;2.90;2.23;;;;;;;;;;5013355;28;20504;-72
2023/10/26 13:07:35;;;;;;;8.23;2.60;;;;;;;;;;5013108;28;20445;-72
2023/10/26 13:10:01;;;;;;;4.20;2.63;;;;;;;;;;5013088;28;20407;-72
2023/10/26 13:12:27;;;;;;;5.73;2.97;;;;;;;;;;5012956;28;20417;-72
2023/10/26 13:14:53;;;;;;;5.63;2.93;;;;;;;;;;5012963;28;20418;-72
2023/10/26 13:17:19;;;;;;;6.07;3.80;;;;;;;;;;4995065;28;20454;-72
2023/10/26 13:19:45;;;;;;;7.10;4.63;;;;;;;;;;5012716;28;20647;-72
2023/10/26 13:22:11;;;;;;;6.93;4.00;;;;;;;;;;4995141;28;20988;-72
2023/10/26 13:24:36;;;;;;;7.80;4.67;;;;;;;;;;5012872;28;20418;-72
2023/10/26 13:27:03;;;;;;;8.93;4.53;;;;;;;;;;4995555;28;20442;-72
2023/10/26 13:29:28;;;;;;;9.70;5.63;;;;;;;;;;5013000;28;20410;-72
2023/10/26 13:31:54;;;;;;;8.93;4.47;;;;;;;;;;5026225;28;20408;-73
2023/10/26 13:34:20;;;;;;;7.37;4.80;;;;;;;;;;5036422;28;20429;-72
2023/10/26 13:36:46;;;;;;;10.83;5.97;;;;;;;;;;5026216;28;20430;-72
2023/10/26 13:39:12;;;;;;;12.23;5.20;;;;;;;;;;5013332;28;20414;-72
2023/10/26 13:41:38;;;;;;;8.20;5.10;;;;;;;;;;5012889;28;20608;-72
2023/10/26 13:44:04;;;;;;;8.80;4.80;;;;;;;;;;5013074;28;20417;-72
2023/10/26 13:46:30;;;;;;;7.97;5.40;;;;;;;;;;5012454;28;20940;-72
2023/10/26 13:48:56;;;;;;;9.43;5.20;;;;;;;;;;5012680;28;20411;-73
2023/10/26 13:51:22;;;;;;;9.83;4.73;;;;;;;;;;5010112;28;20417;-72
2023/10/26 13:53:49;;;;;;;11.83;6.07;;;;;;;;;;4981674;28;20954;-73
2023/10/26 13:56:15;;;;;;;10.43;5.67;;;;;;;;;;5009574;28;20537;-73
2023/10/26 13:58:41;;;;;;;8.10;5.17;;;;;;;;;;5011146;28;20893;-73
2023/10/26 14:01:13;;;;;;;12.17;4.57;;;;;;;;;;5012050;28;20773;-72
2023/10/26 14:03:39;;;;;;;6.90;4.00;;;;;;;;;;5011301;28;20501;-71
2023/10/26 14:06:05;;;;;;;6.73;4.30;;;;;;;;;;5013661;28;20961;-72
2023/10/26 14:08:31;;;;;;;7.93;4.97;;;;;;;;;;5015495;28;20410;-71
2023/10/26 14:10:57;;;;;;;5.20;4.10;;;;;;;;;;5019337;28;20414;-72
2023/10/26 14:13:23;;;;;;;9.73;4.37;;;;;;;;;;5018786;28;20406;-72
2023/10/26 14:15:49;;;;;;;8.20;4.90;;;;;;;;;;5023288;28;20445;-72
2023/10/26 14:18:14;;;;;;;9.37;5.50;;;;;;;;;;5023469;28;20410;-72
2023/10/26 14:20:40;;;;;;;6.97;5.00;;;;;;;;;;5020718;28;20460;-72
2023/10/26 14:23:06;;;;;;;16.17;5.57;;;;;;;;;;5023368;28;20615;-72
2023/10/26 14:25:32;;;;;;;8.63;4.17;;;;;;;;;;5024725;28;20488;-72
2023/10/26 14:28:00;;;;;;;11.50;4.80;;;;;;;;;;5012232;28;20403;-72
2023/10/26 14:30:26;;;;;;;7.17;4.20;;;;;;;;;;5015384;28;20406;-73
2023/10/26 14:32:52;;;;;;;11.60;4.90;;;;;;;;;;5016191;28;20433;-72
2023/10/26 14:35:18;;;;;;;14.10;5.57;;;;;;;;;;5016315;28;20436;-72
2023/10/26 14:37:49;;;;;;;9.83;4.03;;;;;;;;;;5016492;28;20472;-72
2023/10/26 14:40:15;;;;;;;16.07;4.83;;;;;;;;;;5020547;28;20410;-72
2023/10/26 14:42:41;;;;;;;8.87;4.53;;;;;;;;;;5020322;28;20453;-73
2023/10/26 14:45:08;;;;;;;3.90;2.93;;;;;;;;;;5019613;28;20464;-73
2023/10/26 14:47:34;;;;;;;8.63;3.40;;;;;;;;;;5019983;28;20410;-73
2023/10/26 14:50:00;;;;;;;5.47;3.30;;;;;;;;;;5016268;28;20410;-72
2023/10/26 14:52:25;;;;;;;10.13;3.60;;;;;;;;;;5017459;28;20410;-72
2023/10/26 14:54:51;;;;;;;7.60;3.60;;;;;;;;;;5024306;28;20444;-72
2023/10/26 14:57:18;;;;;;;10.97;3.30;;;;;;;;;;5032716;28;20521;-73
2023/10/26 14:59:43;;;;;;;4.97;2.40;;;;;;;;;;5025845;28;20517;-72
2023/10/26 15:02:09;;;;;;;11.90;2.00;;;;;;;;;;5024812;28;20524;-72
2023/10/26 15:04:36;;;;;;;14.53;2.93;;;;;;;;;;5025507;28;20465;-71
2023/10/26 15:07:02;;;;;;;11.67;3.97;;;;;;;;;;5024803;28;20429;-72
2023/10/26 15:09:32;;;;;;;8.90;3.73;;;;;;;;;;5023824;28;20402;-71
2023/10/26 15:11:58;;;;;;;5.30;2.70;;;;;;;;;;5021630;28;20410;-71
2023/10/26 15:14:24;;;;;;;5.70;3.57;;;;;;;;;;5015432;28;20493;-72
2023/10/26 15:16:50;;;;;;;12.53;3.10;;;;;;;;;;5015172;28;20461;-74
2023/10/26 15:19:16;;;;;;;8.40;2.33;;;;;;;;;;5016109;28;20421;-71
2023/10/26 15:21:42;;;;;;;4.63;2.00;;;;;;;;;;5014941;28;20465;-72
2023/10/26 15:24:08;;;;;;;8.40;3.17;;;;;;;;;;5014959;28;20472;-72
2023/10/26 15:26:34;;;;;;;5.20;2.63;;;;;;;;;;5014898;28;20437;-71
2023/10/26 15:29:00;;;;;;;6.07;2.27;;;;;;;;;;5015411;28;20406;-72
2023/10/26 15:31:26;;;;;;;10.50;2.60;;;;;;;;;;5014947;28;20493;-71
2023/10/26 15:33:54;;;;;;;6.53;2.70;;;;;;;;;;5014954;28;20428;-71
2023/10/26 15:36:20;;;;;;;6.23;2.60;;;;;;;;;;5014818;28;20430;-72
2023/10/26 15:38:45;;;;;;;9.43;3.17;;;;;;;;;;5014730;28;20465;-73
2023/10/26 15:41:12;;;;;;;10.40;2.70;;;;;;;;;;5013333;28;20452;-72
2023/10/26 15:43:38;;;;;;;10.10;2.70;;;;;;;;;;5014729;28;20405;-73
2023/10/26 15:46:04;;;;;;;6.13;2.53;;;;;;;;;;5014649;28;20437;-72
2023/10/26 15:48:33;;;;;;;6.67;2.23;;;;;;;;;;5014685;28;20410;-72
2023/10/26 15:51:00;;;;;;;8.93;3.30;;;;;;;;;;5014480;28;20417;-71
2023/10/26 15:53:26;;;;;;;5.37;2.43;;;;;;;;;;4994667;28;20482;-71
2023/10/26 15:55:56;;;;;;;3.77;2.47;;;;;;;;;;4987543;28;20442;-72
2023/10/26 15:58:22;;;;;;;5.47;2.50;;;;;;;;;;5013644;28;20456;-72
2023/10/26 16:00:48;;;;;;;11.23;2.60;;;;;;;;;;5014631;28;20418;-73
2023/10/26 16:03:14;;;;;;;8.40;3.00;;;;;;;;;;5013679;28;20497;-73
2023/10/26 16:05:40;;;;;;;7.03;2.30;;;;;;;;;;5013659;28;20430;-72
2023/10/26 16:08:06;;;;;;;8.00;2.70;;;;;;;;;;5015211;28;20410;-71
2023/10/26 16:10:32;;;;;;;10.87;2.53;;;;;;;;;;5015669;28;20493;-72
2023/10/26 16:12:58;;;;;;;7.00;2.73;;;;;;;;;;4998291;28;20414;-72
2023/10/26 16:15:24;;;;;;;5.93;2.87;;;;;;;;;;5015557;28;20917;-72
2023/10/26 16:17:50;;;;;;;9.73;2.60;;;;;;;;;;4997662;28;20909;-72
2023/10/26 16:20:16;;;;;;;7.00;2.27;;;;;;;;;;5015565;28;20414;-73
2023/10/26 16:22:42;;;;;;;10.43;3.00;;;;;;;;;;5015393;28;20557;-72
2023/10/26 16:25:08;;;;;;;9.10;3.10;;;;;;;;;;5015194;28;20441;-71
2023/10/26 16:27:34;;;;;;;5.67;2.20;;;;;;;;;;5015012;28;20405;-73
2023/10/26 16:30:00;;;;;;;13.27;2.57;;;;;;;;;;5014386;28;20437;-72
2023/10/26 16:32:26;;;;;;;5.93;3.23;;;;;;;;;;5014352;28;20442;-72
2023/10/26 16:34:53;;;;;;;8.90;2.77;;;;;;;;;;5014316;28;20406;-72
2023/10/26 16:37:19;;;;;;;5.77;2.70;;;;;;;;;;4996357;28;20496;-71
2023/10/26 16:39:44;;;;;;;9.23;2.80;;;;;;;;;;4996556;28;20493;-71
2023/10/26 16:42:10;;;;;;;8.40;3.43;;;;;;;;;;5021612;28;20465;-72
2023/10/26 16:44:36;;;;;;;7.53;3.90;;;;;;;;;;5036119;28;20422;-72
2023/10/26 16:47:03;;;;;;;10.23;4.20;;;;;;;;;;5037247;28;20454;-72
2023/10/26 16:49:29;;;;;;;7.67;3.37;;;;;;;;;;5022773;28;20466;-72
2023/10/26 16:51:55;;;;;;;9.70;3.43;;;;;;;;;;5013598;28;20406;-72
2023/10/26 16:54:21;;;;;;;8.57;3.07;;;;;;;;;;5013669;28;20417;-72
2023/10/26 16:56:47;;;;;;;10.53;3.67;;;;;;;;;;5013266;28;20433;-72
2023/10/26 16:59:13;;;;;;;12.00;4.07;;;;;;;;;;5013585;28;20881;-72
2023/10/26 17:01:39;;;;;;;11.53;3.77;;;;;;;;;;5013808;28;20820;-71
2023/10/26 17:04:05;;;;;;;14.00;3.50;;;;;;;;;;5013497;28;20420;-71
2023/10/26 17:06:31;;;;;;;12.23;4.67;;;;;;;;;;5013311;28;20465;-71
2023/10/26 17:08:57;;;;;;;8.50;3.53;;;;;;;;;;5013268;28;20498;-71
2023/10/26 17:11:23;;;;;;;7.00;3.27;;;;;;;;;;5012995;28;20800;-71
2023/10/26 17:13:49;;;;;;;10.87;3.53;;;;;;;;;;5013216;28;20414;-71
2023/10/26 17:16:15;;;;;;;12.60;3.80;;;;;;;;;;5013121;28;20457;-72
2023/10/26 17:18:41;;;;;;;12.07;3.73;;;;;;;;;;5013127;28;20445;-73
2023/10/26 17:21:08;;;;;;;9.63;4.00;;;;;;;;;;5012730;28;20836;-73
2023/10/26 17:23:34;;;;;;;7.30;4.10;;;;;;;;;;4995406;28;20421;-73
2023/10/26 17:26:00;;;;;;;11.87;3.40;;;;;;;;;;4995211;28;20450;-73
2023/10/26 17:28:26;;;;;;;12.47;3.77;;;;;;;;;;5012832;28;20454;-73
2023/10/26 17:30:52;;;;;;;14.30;4.87;;;;;;;;;;5012666;28;20418;-73
2023/10/26 17:33:18;;;;;;;10.83;3.80;;;;;;;;;;5013063;28;20418;-73
2023/10/26 17:35:50;;;;;;;9.87;3.30;;;;;;;;;;4995108;28;20450;-73
2023/10/26 17:38:16;;;;;;;14.63;3.40;;;;;;;;;;5012849;28;20414;-73
2023/10/26 17:40:42;;;;;;;12.07;3.83;;;;;;;;;;5012744;28;20409;-73
2023/10/26 17:43:09;;;;;;;12.33;4.50;;;;;;;;;;5012754;28;20465;-73
2023/10/26 17:45:35;;;;;;;9.40;4.73;;;;;;;;;;5012797;28;20795;-73
2023/10/26 17:48:01;;;;;;;10.77;3.57;;;;;;;;;;5012567;28;20410;-73
2023/10/26 17:50:27;;;;;;;9.20;3.73;;;;;;;;;;5012802;28;20398;-73
2023/10/26 17:52:53;;;;;;;20.77;4.60;;;;;;;;;;4993252;28;20423;-73
2023/10/26 17:55:19;;;;;;;7.90;3.73;;;;;;;;;;4992958;28;20426;-73
2023/10/26 17:57:45;;;;;;;21.97;5.07;;;;;;;;;;5004638;28;20897;-73
2023/10/26 18:00:11;;;;;;;11.37;4.47;;;;;;;;;;5011922;28;20414;-73
2023/10/26 18:02:37;;;;;;;6.87;3.67;;;;;;;;;;5012913;28;20493;-73
2023/10/26 18:05:03;;;;;;;10.07;3.60;;;;;;;;;;5010649;28;20504;-73
2023/10/26 18:07:29;;;;;;;8.93;4.00;;;;;;;;;;5012438;28;20433;-73
2023/10/26 18:09:55;;;;;;;17.20;4.30;;;;;;;;;;5012255;28;20409;-73
2023/10/26 18:12:21;;;;;;;11.90;5.00;;;;;;;;;;5012201;28;20414;-73
2023/10/26 18:14:48;;;;;;;7.10;3.40;;;;;;;;;;5012346;28;20488;-73
2023/10/26 18:17:13;;;;;;;7.60;3.50;;;;;;;;;;5012015;28;20456;-73
2023/10/26 18:19:39;;;;;;;8.27;3.67;;;;;;;;;;5011930;28;20816;-73
2023/10/26 18:22:05;;;;;;;8.40;3.70;;;;;;;;;;5012232;28;20553;-73
2023/10/26 18:24:32;;;;;;;13.20;4.03;;;;;;;;;;5012172;28;20410;-73
2023/10/26 18:26:58;;;;;;;10.83;3.80;;;;;;;;;;4997902;28;20474;-73
2023/10/26 18:29:24;;;;;;;11.53;4.67;;;;;;;;;;4992226;28;20433;-73
2023/10/26 18:31:50;;;;;;;13.07;4.30;;;;;;;;;;4992315;28;20418;-72
2023/10/26 18:34:18;;;;;;;13.10;3.80;;;;;;;;;;4992384;28;20438;-74
2023/10/26 18:36:44;;;;;;;7.20;3.70;;;;;;;;;;4987085;28;20468;-73
2023/10/26 18:39:10;;;;;;;8.20;3.83;;;;;;;;;;4992645;28;20501;-74
2023/10/26 18:41:36;;;;;;;26.07;4.93;;;;;;;;;;4992296;28;20466;-74
2023/10/26 18:44:02;;;;;;;10.43;3.77;;;;;;;;;;4992544;28;20830;-75
2023/10/26 18:46:28;;;;;;;13.83;4.20;;;;;;;;;;4992431;28;20434;-76
2023/10/26 18:48:54;;;;;;;7.57;4.17;;;;;;;;;;4992612;28;20419;-76
2023/10/26 18:51:22;;;;;;;12.80;3.77;;;;;;;;;;4975120;28;20423;-75
2023/10/26 18:53:49;;;;;;;7.67;3.67;;;;;;;;;;4992482;28;20419;-75
2023/10/26 18:56:16;;;;;;;7.80;3.70;;;;;;;;;;4991557;28;20456;-76
2023/10/26 18:58:42;;;;;;;11.60;4.13;;;;;;;;;;4974499;28;20430;-75
2023/10/26 19:01:08;;;;;;;10.33;3.50;;;;;;;;;;4992319;28;20414;-76
2023/10/26 19:03:34;;;;;;;17.60;4.27;;;;;;;;;;4984567;28;20435;-75
2023/10/26 19:06:00;;;;;;;15.13;3.57;;;;;;;;;;4984508;28;20477;-75
2023/10/26 19:08:26;;;;;;;14.00;4.87;;;;;;;;;;4990856;28;20427;-75
2023/10/26 19:10:52;;;;;;;14.00;4.60;;;;;;;;;;4992091;28;20818;-74
2023/10/26 19:13:18;;;;;;;13.87;4.10;;;;;;;;;;4985173;28;20428;-75
2023/10/26 19:15:44;;;;;;;16.73;3.50;;;;;;;;;;4975124;28;20556;-75
2023/10/26 19:18:10;;;;;;;17.93;5.03;;;;;;;;;;4981849;28;20810;-75
2023/10/26 19:20:43;;;;;;;9.67;3.83;;;;;;;;;;4978453;28;20476;-75
2023/10/26 19:23:10;;;;;;;13.97;3.93;;;;;;;;;;4965063;28;20545;-75
2023/10/26 19:25:36;;;;;;;9.67;3.93;;;;;;;;;;4970016;28;20458;-75
2023/10/26 19:28:02;;;;;;;10.77;4.50;;;;;;;;;;4987110;28;20446;-76
2023/10/26 19:30:32;;;;;;;15.27;4.20;;;;;;;;;;4989061;28;20439;-75
2023/10/26 19:32:58;;;;;;;11.80;4.50;;;;;;;;;;5001251;28;20426;-75
2023/10/26 19:35:25;;;;;;;17.90;5.53;;;;;;;;;;5003427;28;20426;-76